Time;durP1;ratioP1;P1;durP2;ratioP2;P2;SDS_P1;SDS_P2;PMS_P1;PMS_P2;Temp;Humidity;BMP_temperature;BMP_pressure;BME280_temperature;BME280_humidity;BME280_pressure;Samples;Min_cycle;Max_cycle;Signal;HPM_P1;HPM_P2
2024/03/30 00:00:41;;;;;;;12.10;4.72;;;;;;;14.37;45.94;95093.44;5106958;28;20019;-77
2024/03/30 00:03:07;;;;;;;8.90;4.70;;;;;;;14.44;46.10;95101.44;5105970;28;20039;-77
2024/03/30 00:05:32;;;;;;;9.27;4.63;;;;;;;14.43;45.41;95107.44;5105718;28;20078;-77
2024/03/30 00:07:57;;;;;;;8.85;4.32;;;;;;;14.38;45.15;95106.03;5107277;28;20031;-78
2024/03/30 00:10:23;;;;;;;11.02;4.50;;;;;;;14.34;45.39;95095.16;5107824;28;20405;-75
2024/03/30 00:12:49;;;;;;;12.15;4.75;;;;;;;14.33;45.04;95096.34;5105273;28;20030;-77
2024/03/30 00:15:15;;;;;;;8.48;4.65;;;;;;;14.33;45.51;95095.59;5106585;28;20100;-77
2024/03/30 00:17:40;;;;;;;10.25;4.43;;;;;;;14.35;45.24;95098.69;5104515;28;20075;-76
2024/03/30 00:20:06;;;;;;;11.65;4.82;;;;;;;14.32;45.51;95094.81;5106269;28;20035;-76
2024/03/30 00:22:31;;;;;;;10.15;4.80;;;;;;;14.25;45.70;95086.06;5105608;28;20089;-78
2024/03/30 00:24:56;;;;;;;11.95;4.60;;;;;;;14.20;46.10;95081.88;5105310;28;20477;-77
2024/03/30 00:27:22;;;;;;;10.18;4.20;;;;;;;14.16;46.48;95088.78;5088894;28;20030;-78
2024/03/30 00:29:47;;;;;;;13.65;4.70;;;;;;;14.03;46.86;95091.66;5106289;28;20092;-78
2024/03/30 00:32:13;;;;;;;7.05;4.18;;;;;;;13.95;47.03;95090.41;5106244;28;20019;-77
2024/03/30 00:34:38;;;;;;;9.52;4.28;;;;;;;13.92;47.31;95091.31;5105918;28;20085;-77
2024/03/30 00:37:05;;;;;;;9.52;4.57;;;;;;;13.90;47.24;95091.00;5089049;28;20080;-77
2024/03/30 00:39:31;;;;;;;8.40;4.10;;;;;;;13.86;47.42;95093.13;5087948;28;20040;-77
2024/03/30 00:41:56;;;;;;;8.75;4.28;;;;;;;13.83;47.43;95086.53;5105341;28;20039;-77
2024/03/30 00:44:22;;;;;;;8.82;4.05;;;;;;;13.79;47.42;95085.91;5106690;28;20277;-77
2024/03/30 00:46:47;;;;;;;8.00;4.70;;;;;;;13.67;47.91;95084.00;5104962;28;20031;-77
2024/03/30 00:49:13;;;;;;;7.72;4.65;;;;;;;13.62;48.15;95081.81;5088743;28;20035;-77
2024/03/30 00:51:38;;;;;;;9.10;5.63;;;;;;;13.51;47.95;95066.41;5104349;28;20016;-76
2024/03/30 00:54:03;;;;;;;8.88;4.70;;;;;;;13.55;47.69;95074.59;5107424;28;20058;-77
2024/03/30 00:56:30;;;;;;;9.88;4.90;;;;;;;13.47;47.82;95078.81;5105843;28;20517;-77
2024/03/30 00:58:56;;;;;;;7.65;4.57;;;;;;;13.49;47.96;95073.63;5105387;28;20305;-77
2024/03/30 01:01:22;;;;;;;11.38;4.55;;;;;;;13.42;48.47;95071.13;5104732;28;20027;-77
2024/03/30 01:03:47;;;;;;;9.38;4.53;;;;;;;13.36;48.23;95067.41;5105816;28;20036;-77
2024/03/30 01:06:13;;;;;;;11.65;4.95;;;;;;;13.43;47.87;95073.44;5087917;28;20031;-77
2024/03/30 01:08:38;;;;;;;8.95;4.10;;;;;;;13.39;47.65;95074.81;5105343;28;20027;-77
2024/03/30 01:11:04;;;;;;;8.77;3.83;;;;;;;13.14;48.05;95067.41;5105642;28;20490;-77
2024/03/30 01:13:31;;;;;;;9.70;3.67;;;;;;;13.21;47.69;95073.47;5103798;28;20028;-77
2024/03/30 01:15:57;;;;;;;7.82;4.03;;;;;;;13.09;48.01;95073.53;5105213;28;20399;-77
2024/03/30 01:18:23;;;;;;;12.80;4.38;;;;;;;13.09;48.13;95068.00;5105358;27;20059;-76
2024/03/30 01:20:51;;;;;;;9.85;4.28;;;;;;;13.01;48.47;95071.00;5087198;28;20173;-77
2024/03/30 01:23:20;;;;;;;9.20;4.18;;;;;;;13.05;48.48;95064.59;5104361;28;20031;-77
2024/03/30 01:25:46;;;;;;;10.10;5.10;;;;;;;13.12;48.38;95072.59;5104104;28;20027;-77
2024/03/30 01:28:12;;;;;;;13.30;5.00;;;;;;;13.18;48.90;95079.09;5106478;28;20022;-77
2024/03/30 01:30:38;;;;;;;7.57;4.07;;;;;;;13.08;49.12;95058.19;5086769;28;20433;-77
2024/03/30 01:33:03;;;;;;;11.52;4.18;;;;;;;13.15;49.16;95068.97;5088304;28;20059;-77
2024/03/30 01:35:29;;;;;;;9.50;4.78;;;;;;;13.17;48.93;95067.28;5105589;28;20071;-77
2024/03/30 01:37:54;;;;;;;13.85;5.75;;;;;;;13.19;48.90;95066.81;5105705;27;20024;-77
2024/03/30 01:40:20;;;;;;;8.85;5.13;;;;;;;13.23;48.82;95073.78;5105409;28;20474;-77
2024/03/30 01:42:45;;;;;;;8.30;4.93;;;;;;;13.26;48.79;95074.88;5103838;28;20020;-77
2024/03/30 01:45:11;;;;;;;13.00;5.45;;;;;;;13.27;48.77;95066.16;5104441;28;20031;-77
2024/03/30 01:47:36;;;;;;;9.65;4.72;;;;;;;13.27;48.54;95065.38;5103335;28;20063;-76
2024/03/30 01:50:02;;;;;;;8.40;4.22;;;;;;;13.14;49.20;95065.44;5104957;28;20480;-77
2024/03/30 01:52:30;;;;;;;10.57;5.03;;;;;;;13.20;49.30;95079.41;5103425;28;20415;-77
2024/03/30 01:54:56;;;;;;;9.27;4.60;;;;;;;13.16;48.82;95064.97;5104467;28;20024;-77
2024/03/30 01:57:21;;;;;;;11.80;4.70;;;;;;;13.11;49.15;95063.56;5105222;28;20081;-76
2024/03/30 01:59:48;;;;;;;7.80;4.32;;;;;;;13.14;49.36;95068.19;5086523;28;20038;-77
2024/03/30 02:02:13;;;;;;;10.30;4.80;;;;;;;13.15;49.54;95069.72;5105301;28;20111;-76
2024/03/30 02:04:39;;;;;;;16.38;5.32;;;;;;;13.13;49.58;95072.19;5103310;28;20110;-76
2024/03/30 02:07:06;;;;;;;9.05;4.90;;;;;;;13.11;49.76;95071.84;5104946;28;20316;-77
2024/03/30 02:09:33;;;;;;;11.00;4.53;;;;;;;13.06;49.87;95071.66;5103550;28;20255;-77
2024/03/30 02:11:58;;;;;;;9.68;4.53;;;;;;;13.06;49.77;95071.66;5105898;28;20030;-78
2024/03/30 02:14:24;;;;;;;9.02;4.60;;;;;;;12.98;50.03;95069.16;5104706;28;20028;-78
2024/03/30 02:16:49;;;;;;;12.68;4.72;;;;;;;13.00;50.01;95079.72;5104635;28;20389;-77
2024/03/30 02:19:16;;;;;;;13.68;5.43;;;;;;;12.98;50.16;95071.13;5103415;28;20061;-78
2024/03/30 02:21:41;;;;;;;8.65;4.93;;;;;;;12.98;50.03;95065.63;5103164;28;20081;-77
2024/03/30 02:24:06;;;;;;;11.45;5.57;;;;;;;12.96;49.93;95073.56;5104019;28;20023;-78
2024/03/30 02:26:32;;;;;;;10.63;5.13;;;;;;;12.95;50.02;95072.03;5102773;28;20470;-78
2024/03/30 02:28:57;;;;;;;11.68;5.25;;;;;;;12.92;49.91;95057.16;5104240;28;20114;-77
2024/03/30 02:31:23;;;;;;;12.05;5.25;;;;;;;12.99;49.83;95070.69;5102700;28;20063;-76
2024/03/30 02:33:49;;;;;;;10.77;5.25;;;;;;;12.97;49.92;95078.66;5103162;28;20023;-77
2024/03/30 02:36:15;;;;;;;11.18;5.70;;;;;;;12.94;50.14;95081.53;5104358;28;20059;-76
2024/03/30 02:38:40;;;;;;;14.18;4.97;;;;;;;12.92;49.96;95070.94;5103175;28;20024;-78
2024/03/30 02:41:06;;;;;;;15.32;5.10;;;;;;;12.89;50.31;95085.63;5103363;28;20069;-78
2024/03/30 02:43:31;;;;;;;11.65;4.75;;;;;;;12.84;50.37;95088.19;5103116;28;20114;-77
2024/03/30 02:45:57;;;;;;;10.32;5.03;;;;;;;12.82;50.34;95090.63;5104078;28;20427;-76
2024/03/30 02:48:22;;;;;;;11.85;5.32;;;;;;;12.80;50.39;95093.09;5104256;28;20027;-77
2024/03/30 02:50:48;;;;;;;11.20;5.35;;;;;;;12.82;50.23;95096.91;5103799;28;20031;-77
2024/03/30 02:53:13;;;;;;;7.75;4.70;;;;;;;12.80;50.55;95099.38;5102976;28;20032;-77
2024/03/30 02:55:38;;;;;;;8.73;4.40;;;;;;;12.70;50.10;95087.47;5103189;28;20034;-77
2024/03/30 02:58:04;;;;;;;9.50;4.50;;;;;;;12.68;50.39;95084.41;5104652;28;20501;-77
2024/03/30 03:00:29;;;;;;;8.90;4.60;;;;;;;12.67;49.92;95084.81;5102933;28;20043;-77
2024/03/30 03:02:55;;;;;;;8.15;4.25;;;;;;;12.68;50.45;95083.63;5104791;28;20051;-78
2024/03/30 03:05:20;;;;;;;9.98;4.55;;;;;;;12.67;50.72;95082.06;5104070;28;20046;-77
2024/03/30 03:07:46;;;;;;;9.90;4.63;;;;;;;12.59;51.30;95081.56;5105103;28;20030;-76
2024/03/30 03:10:14;;;;;;;11.02;4.68;;;;;;;12.52;51.22;95076.28;5102512;28;20054;-78
2024/03/30 03:12:39;;;;;;;8.48;4.55;;;;;;;12.49;51.16;95080.69;5104654;28;20035;-76
2024/03/30 03:15:06;;;;;;;7.53;4.28;;;;;;;12.48;51.20;95083.91;5104127;28;20055;-76
2024/03/30 03:17:31;;;;;;;6.93;3.95;;;;;;;12.39;51.25;95078.31;5102612;28;20502;-77
2024/03/30 03:19:57;;;;;;;10.02;4.40;;;;;;;12.40;51.15;95077.88;5102932;28;20035;-76
2024/03/30 03:22:22;;;;;;;9.43;3.90;;;;;;;12.42;50.69;95078.19;5085924;28;20412;-79
2024/03/30 03:24:48;;;;;;;8.50;3.88;;;;;;;12.41;50.87;95067.59;5104983;28;20047;-76
2024/03/30 03:27:13;;;;;;;8.20;4.07;;;;;;;12.35;51.10;95078.44;5103773;28;20016;-76
2024/03/30 03:29:38;;;;;;;8.30;4.55;;;;;;;12.32;51.43;95067.50;5103415;28;20027;-77
2024/03/30 03:32:04;;;;;;;9.15;4.78;;;;;;;12.28;51.72;95073.16;5085486;28;20032;-76
2024/03/30 03:34:29;;;;;;;11.15;4.95;;;;;;;12.28;51.77;95077.91;5104259;28;20034;-76
2024/03/30 03:36:55;;;;;;;10.88;5.22;;;;;;;12.28;51.79;95078.66;5102465;28;20148;-76
2024/03/30 03:39:22;;;;;;;8.82;4.70;;;;;;;12.30;51.87;95090.00;5104054;28;20108;-76
2024/03/30 03:41:48;;;;;;;12.07;5.18;;;;;;;12.30;51.69;95081.75;5104098;28;20038;-77
2024/03/30 03:44:13;;;;;;;9.20;5.05;;;;;;;12.06;51.81;95050.28;5102263;28;20023;-78
2024/03/30 03:46:38;;;;;;;10.45;5.13;;;;;;;12.29;51.79;95085.72;5087091;28;20023;-77
2024/03/30 03:49:04;;;;;;;6.40;4.18;;;;;;;12.27;51.80;95079.88;5106135;28;20024;-77
2024/03/30 03:51:30;;;;;;;9.63;4.22;;;;;;;12.24;51.91;95080.78;5106521;28;20418;-78
2024/03/30 03:53:55;;;;;;;10.43;3.95;;;;;;;12.19;52.11;95087.59;5105795;28;20107;-76
2024/03/30 03:56:21;;;;;;;8.13;3.88;;;;;;;12.15;52.54;95092.44;5107618;28;20378;-77
2024/03/30 03:58:46;;;;;;;10.10;4.70;;;;;;;12.04;52.80;95089.28;5107617;28;20478;-76
2024/03/30 04:01:14;;;;;;;11.38;3.85;;;;;;;12.07;52.40;95085.63;5107554;28;20026;-77
2024/03/30 04:03:41;;;;;;;10.02;4.43;;;;;;;12.08;52.52;95095.44;5089807;28;20478;-77
2024/03/30 04:06:10;;;;;;;7.20;4.45;;;;;;;12.06;52.61;95094.34;5105739;28;20015;-76
2024/03/30 04:08:36;;;;;;;12.07;4.40;;;;;;;12.08;52.64;95103.72;5106768;28;20462;-77
2024/03/30 04:11:03;;;;;;;10.77;5.03;;;;;;;12.09;52.47;95104.47;5105653;28;20027;-77
2024/03/30 04:13:28;;;;;;;10.30;4.85;;;;;;;12.07;52.38;95099.41;5105928;28;20037;-76
2024/03/30 04:15:54;;;;;;;12.70;5.13;;;;;;;11.93;52.75;95089.63;5105216;28;20023;-77
2024/03/30 04:18:19;;;;;;;15.50;5.45;;;;;;;12.03;52.75;95104.25;5106898;28;20145;-77
2024/03/30 04:20:55;;;;;;;11.93;4.57;;;;;;;12.03;53.07;95095.22;5107346;28;20033;-76
2024/03/30 04:23:20;;;;;;;10.27;5.15;;;;;;;11.96;53.18;95093.47;5106882;28;20474;-76
2024/03/30 04:25:46;;;;;;;12.50;5.75;;;;;;;12.00;53.12;95099.66;5107566;28;20023;-77
2024/03/30 04:28:11;;;;;;;8.73;5.15;;;;;;;11.91;53.10;95083.78;5106657;28;20063;-78
2024/03/30 04:30:36;;;;;;;12.20;5.20;;;;;;;11.90;53.17;95093.25;5105734;28;20043;-77
2024/03/30 04:33:02;;;;;;;10.68;5.05;;;;;;;11.96;53.27;95099.00;5105023;28;20335;-76
2024/03/30 04:35:27;;;;;;;15.73;5.78;;;;;;;11.92;53.16;95085.31;5105390;28;20020;-77
2024/03/30 04:37:53;;;;;;;11.38;5.28;;;;;;;11.99;53.44;95091.84;5105402;28;20885;-77
2024/03/30 04:40:18;;;;;;;12.13;5.32;;;;;;;11.94;53.46;95096.69;5104949;28;20016;-76
2024/03/30 04:42:43;;;;;;;10.13;5.15;;;;;;;11.89;53.66;95085.44;5105925;28;20054;-77
2024/03/30 04:45:09;;;;;;;12.85;4.43;;;;;;;11.87;53.61;95104.38;5106199;28;20051;-77
2024/03/30 04:47:36;;;;;;;9.77;4.32;;;;;;;11.78;53.14;95091.25;5105729;28;20020;-76
2024/03/30 04:50:01;;;;;;;7.95;3.85;;;;;;;11.80;53.19;95094.31;5104853;28;20702;-77
2024/03/30 04:52:27;;;;;;;10.80;4.20;;;;;;;11.82;53.13;95083.69;5087896;28;20027;-76
2024/03/30 04:54:52;;;;;;;13.45;4.47;;;;;;;11.83;53.12;95087.22;5105190;28;20080;-76
2024/03/30 04:57:18;;;;;;;11.88;4.60;;;;;;;11.83;52.96;95096.25;5105898;28;20030;-76
2024/03/30 04:59:43;;;;;;;14.35;3.95;;;;;;;11.81;53.20;95086.84;5106632;28;20050;-76
2024/03/30 05:02:08;;;;;;;14.70;4.47;;;;;;;11.81;53.23;95093.13;5087473;28;20069;-77
2024/03/30 05:04:34;;;;;;;8.07;4.10;;;;;;;11.88;52.90;95105.94;5105523;28;20419;-77
2024/03/30 05:06:59;;;;;;;11.43;4.75;;;;;;;11.91;53.09;95100.31;5104327;28;20024;-76
2024/03/30 05:09:25;;;;;;;12.77;4.90;;;;;;;11.90;53.19;95098.75;5104826;28;20055;-77
2024/03/30 05:11:50;;;;;;;9.68;4.35;;;;;;;11.95;53.17;95112.00;5106117;27;20024;-77
2024/03/30 05:14:15;;;;;;;11.30;4.95;;;;;;;11.98;52.92;95106.81;5105913;28;20127;-77
2024/03/30 05:16:41;;;;;;;11.73;5.10;;;;;;;12.02;53.01;95119.25;5105865;28;20043;-77
2024/03/30 05:20:43;;;;;;;12.85;5.57;;;;;;;12.05;53.16;95123.13;5103677;28;20050;-77
2024/03/30 05:21:51;;;;;;;9.02;4.45;;;;;;;12.13;52.79;95119.69;5105248;28;20064;-77
2024/03/30 05:24:17;;;;;;;12.40;5.07;;;;;;;12.18;52.93;95121.13;5087071;28;20019;-76
2024/03/30 05:26:42;;;;;;;16.08;6.22;;;;;;;12.21;52.83;95118.25;5104581;28;20111;-77
2024/03/30 05:29:08;;;;;;;12.07;5.43;;;;;;;12.29;52.61;95121.56;5104201;28;20409;-77
2024/03/30 05:31:33;;;;;;;16.65;5.65;;;;;;;12.33;52.67;95122.22;5105718;28;20023;-77
2024/03/30 05:33:58;;;;;;;15.77;5.55;;;;;;;12.39;52.68;95114.94;5105528;28;20020;-77
2024/03/30 05:36:24;;;;;;;10.15;4.97;;;;;;;12.47;52.66;95113.47;5103937;28;20123;-77
2024/03/30 05:38:49;;;;;;;13.23;6.10;;;;;;;12.57;52.51;95119.09;5104814;28;20030;-77
2024/03/30 05:41:14;;;;;;;14.85;7.63;;;;;;;12.64;52.69;95116.06;5104979;28;20059;-77
2024/03/30 05:43:40;;;;;;;16.48;6.68;;;;;;;12.71;52.96;95115.81;5106123;28;20022;-77
2024/03/30 05:46:05;;;;;;;18.55;6.43;;;;;;;12.80;52.78;95120.66;5105125;27;20426;-77
2024/03/30 05:48:31;;;;;;;20.08;7.45;;;;;;;12.88;52.09;95113.66;5104040;28;20104;-77
2024/03/30 05:50:56;;;;;;;14.75;6.57;;;;;;;12.94;52.43;95107.13;5103851;28;20023;-76
2024/03/30 05:53:21;;;;;;;19.25;7.93;;;;;;;13.05;52.06;95097.72;5105425;28;20120;-76
2024/03/30 05:55:47;;;;;;;15.07;7.63;;;;;;;13.13;51.68;95107.25;5104332;28;20081;-76
2024/03/30 05:58:14;;;;;;;14.45;7.78;;;;;;;13.18;51.60;95099.16;5103924;28;20086;-75
2024/03/30 06:00:40;;;;;;;20.85;7.28;;;;;;;13.19;51.87;95110.97;5104687;28;20089;-77
2024/03/30 06:03:06;;;;;;;23.38;7.97;;;;;;;13.24;51.71;95110.44;5103383;28;20058;-77
2024/03/30 06:05:32;;;;;;;16.95;8.18;;;;;;;13.29;51.35;95110.63;5104133;28;20046;-77
2024/03/30 06:07:57;;;;;;;20.75;8.40;;;;;;;13.35;51.34;95110.06;5103709;28;20460;-77
2024/03/30 06:10:23;;;;;;;19.52;7.78;;;;;;;13.44;50.60;95113.66;5102935;28;20031;-76
2024/03/30 06:12:48;;;;;;;18.70;7.18;;;;;;;13.49;50.00;95115.81;5105116;28;20059;-77
2024/03/30 06:15:13;;;;;;;12.48;5.78;;;;;;;13.50;49.62;95111.84;5103513;28;20409;-77
2024/03/30 06:17:39;;;;;;;19.05;6.10;;;;;;;13.55;49.20;95113.25;5087063;28;20088;-78
2024/03/30 06:20:07;;;;;;;13.20;5.88;;;;;;;13.59;49.26;95104.81;5103256;28;20051;-77
2024/03/30 06:22:33;;;;;;;14.80;5.90;;;;;;;13.60;49.44;95109.91;5103918;28;20494;-78
2024/03/30 06:24:58;;;;;;;15.38;6.47;;;;;;;13.63;49.65;95108.97;5103241;28;20028;-76
2024/03/30 06:27:24;;;;;;;16.25;6.85;;;;;;;13.70;49.64;95111.47;5103421;28;20453;-77
2024/03/30 06:29:49;;;;;;;11.98;5.68;;;;;;;13.75;49.55;95110.88;5103300;28;20447;-77
2024/03/30 06:32:14;;;;;;;13.88;6.20;;;;;;;13.79;49.44;95117.06;5104879;28;20085;-77
2024/03/30 06:34:40;;;;;;;10.10;5.80;;;;;;;13.81;49.47;95113.81;5103731;28;20027;-76
2024/03/30 06:37:05;;;;;;;16.83;6.10;;;;;;;13.86;49.42;95116.00;5085880;28;20057;-77
2024/03/30 06:44:58;;;;;;;14.35;5.78;;;;;;;14.07;48.96;95125.47;5104670;28;20046;-77
2024/03/30 06:47:24;;;;;;;11.48;5.47;;;;;;;14.16;48.79;95128.25;5103551;28;20028;-76
2024/03/30 06:49:49;;;;;;;12.30;5.47;;;;;;;14.24;48.74;95117.69;5104807;28;20704;-78
2024/03/30 06:52:14;;;;;;;11.25;5.50;;;;;;;14.31;48.33;95120.16;5090796;28;20413;-77
2024/03/30 06:54:40;;;;;;;14.93;6.18;;;;;;;14.38;48.09;95121.88;5103065;28;20019;-77
2024/03/30 06:57:05;;;;;;;8.40;5.20;;;;;;;14.42;47.84;95120.50;5103801;28;20028;-77
2024/03/30 06:59:31;;;;;;;9.48;5.38;;;;;;;14.47;47.22;95119.16;5104950;28;20054;-77
2024/03/30 07:01:56;;;;;;;9.00;4.80;;;;;;;14.54;47.10;95121.63;5103039;28;20023;-77
2024/03/30 07:04:21;;;;;;;14.98;5.57;;;;;;;14.47;46.93;95088.75;5105011;28;20390;-77
2024/03/30 07:06:47;;;;;;;15.73;5.85;;;;;;;14.71;46.85;95124.88;5103386;28;20050;-77
2024/03/30 07:09:12;;;;;;;16.02;6.80;;;;;;;14.77;47.15;95125.81;5104798;28;20394;-76
2024/03/30 07:11:38;;;;;;;16.40;6.55;;;;;;;14.87;47.16;95130.13;5103119;28;20074;-77
2024/03/30 07:14:04;;;;;;;13.20;6.60;;;;;;;14.98;46.98;95127.69;5103484;28;20016;-77
2024/03/30 07:16:30;;;;;;;11.25;6.40;;;;;;;15.04;46.84;95139.69;5104300;28;20035;-76
2024/03/30 07:18:55;;;;;;;12.55;7.05;;;;;;;15.13;47.01;95136.91;5104324;28;20043;-78
2024/03/30 07:21:20;;;;;;;19.75;6.65;;;;;;;15.18;46.82;95137.53;5106204;28;20055;-77
2024/03/30 07:23:46;;;;;;;15.88;6.45;;;;;;;15.21;46.64;95133.84;5108436;27;20559;-76
2024/03/30 07:26:11;;;;;;;11.75;6.60;;;;;;;15.31;46.19;95138.91;5108294;28;20119;-77
2024/03/30 07:28:37;;;;;;;12.00;7.30;;;;;;;15.45;46.48;95140.28;5108912;28;20462;-77
2024/03/30 07:31:06;;;;;;;14.70;7.45;;;;;;;15.60;46.01;95140.41;5107226;28;20106;-78
2024/03/30 07:33:35;;;;;;;14.75;8.55;;;;;;;15.77;45.20;95138.88;5106451;28;20433;-77
2024/03/30 07:36:00;;;;;;;19.67;9.80;;;;;;;15.84;45.43;95144.06;5108696;28;20120;-77
2024/03/30 07:38:31;;;;;;;15.23;8.07;;;;;;;15.91;45.45;95134.66;5106744;28;20028;-77
2024/03/30 07:40:57;;;;;;;15.30;6.53;;;;;;;16.00;44.46;95131.88;5089685;28;20031;-79
2024/03/30 07:43:23;;;;;;;18.30;7.63;;;;;;;16.10;44.44;95132.59;5107906;28;20020;-76
2024/03/30 07:45:48;;;;;;;13.40;7.05;;;;;;;16.31;44.20;95133.59;5106701;28;20028;-78
2024/03/30 07:48:13;;;;;;;17.50;6.78;;;;;;;16.41;43.34;95126.75;5107102;28;20024;-77
2024/03/30 07:50:39;;;;;;;11.98;5.72;;;;;;;16.48;43.02;95125.63;5089544;28;20031;-76
2024/03/30 07:53:04;;;;;;;15.52;6.22;;;;;;;16.57;43.01;95125.56;5108174;28;20072;-77
2024/03/30 07:55:30;;;;;;;16.42;6.47;;;;;;;16.75;42.75;95130.28;5107755;28;20039;-76
2024/03/30 07:57:56;;;;;;;11.95;5.07;;;;;;;16.83;42.35;95129.44;5106128;28;20020;-78
2024/03/30 08:00:22;;;;;;;12.13;5.47;;;;;;;17.01;41.60;95125.00;5106263;28;20378;-77
2024/03/30 08:02:48;;;;;;;10.70;4.75;;;;;;;17.07;41.60;95123.09;5089203;28;20414;-77
2024/03/30 08:05:13;;;;;;;10.48;5.32;;;;;;;17.20;41.51;95120.84;5109722;28;20023;-77
2024/03/30 08:07:38;;;;;;;17.13;6.60;;;;;;;17.39;41.17;95122.22;5108920;28;20032;-77
2024/03/30 08:10:04;;;;;;;17.85;5.93;;;;;;;17.58;40.96;95122.81;5107842;28;20093;-77
2024/03/30 08:12:30;;;;;;;13.55;5.28;;;;;;;17.75;40.28;95125.91;5107588;28;20011;-77
2024/03/30 08:14:55;;;;;;;8.38;4.50;;;;;;;17.88;40.01;95122.84;5106072;28;20470;-78
2024/03/30 08:17:20;;;;;;;13.23;4.50;;;;;;;18.03;39.98;95120.81;5107000;28;20047;-78
2024/03/30 08:19:46;;;;;;;11.73;5.07;;;;;;;18.21;39.30;95114.28;5107334;28;20027;-76
2024/03/30 08:22:11;;;;;;;13.73;5.10;;;;;;;18.42;38.83;95104.72;5104937;28;20050;-78
2024/03/30 08:24:36;;;;;;;10.90;4.47;;;;;;;18.61;38.06;95110.03;5105833;28;20665;-77
2024/03/30 08:27:04;;;;;;;12.45;4.40;;;;;;;18.79;38.15;95107.78;5106103;28;20120;-78
2024/03/30 08:29:29;;;;;;;9.35;4.57;;;;;;;18.96;37.94;95116.34;5105419;28;20032;-77
2024/03/30 08:31:54;;;;;;;11.38;4.13;;;;;;;19.17;37.40;95116.34;5105342;28;20111;-77
2024/03/30 08:34:20;;;;;;;7.13;4.32;;;;;;;19.35;37.29;95121.63;5087759;28;20082;-77
2024/03/30 08:36:45;;;;;;;12.80;4.95;;;;;;;19.61;36.73;95107.72;5107022;28;20051;-76
2024/03/30 08:39:11;;;;;;;10.63;4.20;;;;;;;19.77;36.84;95109.13;5106500;28;20024;-79
2024/03/30 08:41:36;;;;;;;15.95;4.55;;;;;;;20.02;36.36;95097.19;5105192;28;20088;-77
2024/03/30 08:44:04;;;;;;;10.25;3.42;;;;;;;20.27;35.23;95087.22;5106570;28;20058;-79
2024/03/30 08:46:29;;;;;;;11.20;3.13;;;;;;;20.53;34.46;95097.56;5105161;28;20057;-78
2024/03/30 08:49:05;;;;;;;9.82;4.00;;;;;;;20.75;35.23;95088.53;5088571;28;20477;-78
2024/03/30 08:51:31;;;;;;;15.55;4.72;;;;;;;21.06;34.82;95084.88;5106850;28;20504;-77
2024/03/30 08:54:02;;;;;;;10.35;4.00;;;;;;;21.33;34.40;95084.22;5087962;28;20028;-77
2024/03/30 08:56:35;;;;;;;8.50;3.00;;;;;;;21.63;33.25;95078.19;5105004;28;20474;-77
2024/03/30 08:59:01;;;;;;;11.55;4.00;;;;;;;21.97;32.82;95076.19;5104536;28;20035;-77
2024/03/30 09:01:28;;;;;;;11.07;3.30;;;;;;;22.29;32.49;95082.28;5106822;28;20611;-78
2024/03/30 09:03:53;;;;;;;10.00;4.03;;;;;;;22.52;32.42;95072.56;5104505;28;20031;-78
2024/03/30 09:06:19;;;;;;;8.70;3.20;;;;;;;22.89;31.78;95074.31;5105416;28;20028;-78
2024/03/30 09:08:45;;;;;;;6.32;2.78;;;;;;;23.24;29.86;95070.06;5104613;28;20028;-77
2024/03/30 09:11:11;;;;;;;8.57;3.25;;;;;;;23.43;29.99;95062.56;5104533;28;20101;-79
2024/03/30 09:13:38;;;;;;;7.40;2.92;;;;;;;23.71;29.54;95056.81;5106297;27;20032;-77
2024/03/30 09:16:04;;;;;;;8.20;2.67;;;;;;;24.05;29.68;95056.56;5103938;28;20406;-79
2024/03/30 09:18:30;;;;;;;10.02;2.70;;;;;;;24.33;28.67;95059.13;5105783;28;20613;-78
2024/03/30 09:21:02;;;;;;;7.55;2.10;;;;;;;24.63;28.35;95053.47;5109221;28;20103;-79
2024/03/30 09:23:28;;;;;;;8.17;2.63;;;;;;;24.97;27.72;95048.25;5092295;28;20034;-78
2024/03/30 09:25:53;;;;;;;8.40;3.03;;;;;;;25.26;26.94;95045.88;5105576;28;20024;-78
2024/03/30 09:28:18;;;;;;;9.80;2.55;;;;;;;25.55;26.69;95047.00;5104446;28;20110;-78
2024/03/30 09:30:44;;;;;;;6.57;2.30;;;;;;;25.90;26.63;95034.72;5105606;28;20039;-78
2024/03/30 09:33:09;;;;;;;10.60;2.30;;;;;;;26.17;25.87;95049.66;5104078;28;20016;-78
2024/03/30 09:35:38;;;;;;;8.70;2.22;;;;;;;26.41;25.94;95037.47;5104179;28;20027;-78
2024/03/30 09:38:03;;;;;;;12.85;3.72;;;;;;;26.71;25.81;95032.28;5086910;28;20058;-78
2024/03/30 09:40:29;;;;;;;9.68;2.65;;;;;;;27.03;24.53;95033.47;5106278;28;20632;-77
2024/03/30 09:42:54;;;;;;;7.07;3.00;;;;;;;27.25;24.68;95030.97;5104198;28;20115;-79
2024/03/30 09:45:20;;;;;;;5.50;1.83;;;;;;;27.53;23.88;95029.59;5104624;28;20043;-78
2024/03/30 09:47:47;;;;;;;7.07;2.15;;;;;;;27.73;22.89;95020.44;5104246;28;20032;-79
2024/03/30 09:50:13;;;;;;;8.15;2.78;;;;;;;28.02;22.88;95012.03;5103932;28;20028;-79
2024/03/30 09:52:39;;;;;;;10.13;2.78;;;;;;;28.39;22.91;95013.72;5105524;28;20023;-78
2024/03/30 09:55:11;;;;;;;7.30;2.65;;;;;;;28.72;22.18;95019.75;5103636;28;20115;-77
2024/03/30 09:57:40;;;;;;;7.20;3.07;;;;;;;28.93;21.67;95014.06;5105847;28;20405;-79
2024/03/30 10:00:08;;;;;;;4.82;2.28;;;;;;;29.26;21.58;95013.13;5103573;28;20043;-78
2024/03/30 10:02:33;;;;;;;8.63;2.30;;;;;;;29.55;22.00;95004.56;5104221;28;20031;-78
2024/03/30 10:04:58;;;;;;;5.97;2.00;;;;;;;29.80;21.71;95004.78;5103547;28;20027;-79
2024/03/30 10:07:34;;;;;;;10.85;2.95;;;;;;;30.20;21.72;94996.56;5105148;28;20050;-80
2024/03/30 10:10:12;;;;;;;8.02;2.67;;;;;;;30.57;20.68;94997.13;5086142;28;20031;-78
2024/03/30 10:12:40;;;;;;;8.65;1.90;;;;;;;30.94;20.12;94987.03;5105205;28;20023;-78
2024/03/30 10:15:06;;;;;;;11.38;2.10;;;;;;;31.22;19.90;94991.66;5105460;28;20053;-79
2024/03/30 10:17:32;;;;;;;7.88;2.58;;;;;;;31.45;18.90;94989.50;5103263;28;20040;-79
2024/03/30 10:19:58;;;;;;;5.22;2.00;;;;;;;31.83;18.98;94984.94;5104102;28;20405;-79
2024/03/30 10:22:23;;;;;;;9.82;2.05;;;;;;;32.34;18.58;94975.88;5103272;28;20027;-79
2024/03/30 10:24:51;;;;;;;8.20;2.30;;;;;;;33.02;17.71;94979.41;5103530;28;20031;-79
2024/03/30 10:27:16;;;;;;;4.95;1.90;;;;;;;33.69;17.13;94969.88;5086266;28;20028;-78
2024/03/30 10:29:45;;;;;;;6.43;1.75;;;;;;;34.22;16.40;94971.94;5103414;28;20077;-78
2024/03/30 10:32:10;;;;;;;5.13;2.03;;;;;;;34.72;15.90;94960.09;5103826;28;20035;-78
2024/03/30 10:34:36;;;;;;;7.43;1.85;;;;;;;35.41;15.28;94958.00;5103338;28;20028;-78
2024/03/30 10:37:01;;;;;;;7.95;1.90;;;;;;;36.02;14.87;94960.31;5103592;28;20466;-78
2024/03/30 10:39:28;;;;;;;6.30;2.15;;;;;;;36.89;13.79;94951.28;5103199;28;20019;-79
2024/03/30 10:41:54;;;;;;;6.40;1.58;;;;;;;37.74;13.06;94946.78;5108411;28;20031;-79
2024/03/30 10:44:26;;;;;;;8.48;4.50;;;;;;;38.48;12.85;94944.25;5104782;28;20024;-80
2024/03/30 10:46:53;;;;;;;7.03;1.83;;;;;;;39.28;12.17;94932.47;5103614;28;20188;-80
2024/03/30 10:49:18;;;;;;;5.63;1.80;;;;;;;39.74;11.56;94933.63;5103489;28;20125;-78
2024/03/30 10:51:44;;;;;;;3.45;1.42;;;;;;;40.16;11.19;94937.38;5105189;28;20033;-78
2024/03/30 10:54:14;;;;;;;4.30;1.20;;;;;;;40.60;10.81;94933.28;5103691;28;20015;-79
2024/03/30 10:56:48;;;;;;;4.43;1.60;;;;;;;40.85;10.66;94926.63;5105738;28;20171;-79
2024/03/30 10:59:17;;;;;;;5.90;1.75;;;;;;;41.37;10.31;94929.97;5107060;28;20111;-79
2024/03/30 11:01:45;;;;;;;5.97;2.40;;;;;;;41.96;10.50;94921.25;5090324;28;20054;-78
2024/03/30 11:04:15;;;;;;;5.63;1.92;;;;;;;42.39;9.67;94931.91;5089847;28;20055;-80
2024/03/30 11:06:42;;;;;;;4.68;1.83;;;;;;;42.84;9.96;94926.00;5107772;28;20020;-78
2024/03/30 11:09:13;;;;;;;3.75;1.55;;;;;;;43.09;9.04;94918.38;5106659;28;20077;-79
2024/03/30 11:11:39;;;;;;;5.80;1.35;;;;;;;43.64;8.63;94921.38;5107666;28;20533;-79
2024/03/30 11:14:05;;;;;;;3.83;1.10;;;;;;;43.84;8.46;94918.59;5107080;28;20084;-79
2024/03/30 11:16:36;;;;;;;6.78;1.60;;;;;;;43.94;8.80;94906.66;5089823;28;20076;-80
2024/03/30 11:19:05;;;;;;;8.00;1.80;;;;;;;44.27;8.87;94902.09;5106733;28;20055;-80
2024/03/30 11:21:42;;;;;;;7.20;1.85;;;;;;;44.46;7.97;94901.38;5089848;28;20031;-81
2024/03/30 11:24:08;;;;;;;2.85;1.10;;;;;;;44.50;7.77;94893.56;5107357;28;20047;-80
2024/03/30 11:26:35;;;;;;;8.00;3.40;;;;;;;44.83;7.97;94903.44;5106794;28;20505;-78
2024/03/30 11:29:11;;;;;;;6.30;1.70;;;;;;;44.86;7.76;94893.41;5107198;28;20035;-79